Αρχική σελίδα
METAR-TAF:

METAR-TAF

Αεροδρόμια :

Σφαξ, Τυνησία

γεωγραφικό πλάτος: 34-43N, γεωγραφικό μήκος: 010-41E, υψόμετρο: 21 μ

Παρών καιρός

Η αναφορά έγινε 22 λεπτά πριν, στις 18:00 UTC
Άνεμος 7 kt από Ν/ΝΔ
Θερμοκρασία 18°C
Υγρασία 64%
Πίεση 1010 hPa
Ορατότητα: 8000 μ
Λίγα νέφη σε ύψος 2000 πόδια

METAR: DTTX 181800Z 21007KT 8000 FEW020 18/11 Q1010

Χρόνος: 19:22 (18:22 UTC)

Πρόγνωση Καιρού

Η αναφορά έγινε 1 ώρα και 0 λεπτά πριν, στις 17:22 UTC
Η πρόγνωση ισχύει από τις 18 στις 18 UTC έως τις 19 στις 18 UTC
Άνεμος 5 kt από Ν
Ορατότητα 10 χλμ και άνω
Λίγα νέφη σε ύψος 2000 πόδια
Πιθανότητα 30% :
Προσωρινά
από 19 στις 02 UTC έως τις 19 στις 12 UTC
Άνεμος 15 kt από Ν με ριπές μέχρι 25 kt

TAF: DTTX 181722Z 1818/1918 18005KT 9999 FEW020 PROB30 TEMPO 1902/1912 19015G25KT

Μετεωρολογικές αναφορές και προγνώσεις για περισσότερα από 4000 αεροδρόμια (δελτία METAR και TAF).

Οι διαθέσιμοι σταθμοί απεικονίζονται στο χάρτη με κίτρινες και κόκκινες κουκκίδες.

Μετακινήστε το ποντίκι πάνω από τις κουκκίδες για να δείτε το όνομα του σταθμού.

Στη συνέχεια, κάντε κλικ για να δείτε τις μετεωρολογικές αναφορές και τις προγνώσεις καιρού.

Για να αλλάξετε το χάρτη: κάντε κλικ στα πράσινα κουμπιά με τον μαύρο σταυρό για να ζουμάρετε, στο πράσινο κουμπί με την παύλα για να αφαιρέσετε το ζουμ ή στα πράσινα βέλη για να αντιπαραβάλλετε χάρτες.


METAR-TAF: